Terminal Aerodrome Forecast
Issued by NWS Shreveport, LA

Home | Current Version | Previous Version | Text Only | Print | Product List | Glossary On
Versions: 1 2 3 4 5 6 7 8 9 10 11 12 13 14 15 16 17 18
000
FTUS44 KSHV 300526
TAFELD
TAF
KELD 300526Z 3006/3106 20007KT P6SM SKC
     FM300900 22004KT 5SM -SHRA BR BKN050
     FM301200 22005KT 4SM BR VCSH BKN050
     FM301800 VRB04KT P6SM OVC050=

USA.gov is the U.S. government's official web portal to all federal, state and local government web resources and services.